Time;durP1;ratioP1;P1;durP2;ratioP2;P2;SDS_P1;SDS_P2;PMS_P1;PMS_P2;Temp;Humidity;BMP_temperature;BMP_pressure;BME280_temperature;BME280_humidity;BME280_pressure;Samples;Min_cycle;Max_cycle;Signal;HPM_P1;HPM_P2
2022/07/30 17:53:50;;;;;;;;;;;;;;;22.19;77.97;99247.53;4580817;23;22513;-74
2022/07/30 17:56:21;;;;;;;;;;;;;;;21.97;78.12;99241.81;4997448;28;19929;-69
2022/07/30 17:58:54;;;;;;;;;;;;;;;21.89;78.04;99242.22;5014531;28;19932;-69
2022/07/30 18:01:22;;;;;;;;;;;;;;;21.91;78.00;99234.31;5014469;28;19933;-69
2022/07/30 18:03:51;;;;;;;;;;;;;;;21.86;78.00;99241.53;4996834;28;19933;-69
2022/07/30 18:06:19;;;;;;;;;;;;;;;21.85;78.00;99240.72;4997254;28;19925;-69
2022/07/30 18:08:48;;;;;;;;;;;;;;;21.83;78.01;99244.28;5014711;28;20290;-69
2022/07/30 18:11:17;;;;;;;;;;;;;;;21.84;78.23;99238.16;4997120;28;19925;-69
2022/07/30 18:13:47;;;;;;;;;;;;;;;21.88;77.89;99242.31;4997237;28;20078;-69
2022/07/30 18:16:16;;;;;;;;;;;;;;;21.94;77.38;99235.00;5014209;28;19925;-70
2022/07/30 18:18:44;;;;;;;;;;;;;;;21.95;77.06;99233.25;5014598;28;19926;-69
2022/07/30 18:21:13;;;;;;;;;;;;;;;21.91;77.58;99234.31;5014104;28;19925;-69
2022/07/30 18:23:41;;;;;;;;;;;;;;;21.94;77.47;99239.38;5014376;28;19932;-69
2022/07/30 18:26:10;;;;;;;;;;;;;;;21.90;77.28;99237.84;5014780;28;20357;-69
2022/07/30 18:28:39;;;;;;;;;;;;;;;21.90;77.47;99233.50;5014476;28;19930;-69
2022/07/30 18:31:09;;;;;;;;;;;;;;;21.88;77.06;99230.13;5014521;28;20117;-69
2022/07/30 18:33:37;;;;;;;;;;;;;;;21.84;77.02;99222.56;5014207;28;20313;-69
2022/07/30 18:36:06;;;;;;;;;;;;;;;21.88;76.76;99230.13;5014483;28;19964;-69
2022/07/30 18:38:35;;;;;;;;;;;;;;;21.86;76.67;99220.72;5014098;28;19961;-69
2022/07/30 18:41:03;;;;;;;;;;;;;;;21.78;76.83;99223.75;5014388;28;19930;-69
2022/07/30 18:43:32;;;;;;;;;;;;;;;21.72;76.58;99218.00;5014903;28;20359;-69
2022/07/30 18:46:17;;;;;;;;;;;;;;;21.79;76.45;99224.56;5013965;28;19932;-69
2022/07/30 18:48:47;;;;;;;;;;;;;;;21.79;76.21;99221.97;5013968;28;19926;-69
2022/07/30 18:51:17;;;;;;;;;;;;;;;21.79;75.85;99224.56;4996487;28;19925;-69
2022/07/30 18:53:46;;;;;;;;;;;;;;;21.79;75.96;99214.16;5013963;28;20023;-69
2022/07/30 18:56:14;;;;;;;;;;;;;;;21.74;75.75;99222.22;5014082;28;19926;-69
2022/07/30 18:58:43;;;;;;;;;;;;;;;21.70;76.10;99225.06;5013875;28;19926;-69
2022/07/30 19:01:11;;;;;;;;;;;;;;;21.66;76.12;99220.94;5014105;28;20398;-69
2022/07/30 19:03:41;;;;;;;;;;;;;;;21.62;76.28;99224.63;5014145;28;19925;-69
2022/07/30 19:06:10;;;;;;;;;;;;;;;21.63;76.17;99223.69;5017811;28;20363;-69
2022/07/30 19:08:38;;;;;;;;;;;;;;;21.62;76.29;99219.44;5017931;28;19975;-69
2022/07/30 19:11:08;;;;;;;;;;;;;;;21.64;76.50;99220.19;5018256;28;19969;-69
2022/07/30 19:13:38;;;;;;;;;;;;;;;21.64;76.30;99222.78;5017540;28;19925;-69
2022/07/30 19:16:07;;;;;;;;;;;;;;;21.61;76.55;99226.38;5017833;28;19933;-69
2022/07/30 19:18:36;;;;;;;;;;;;;;;21.62;76.53;99227.25;5018361;28;20286;-69
2022/07/30 19:21:06;;;;;;;;;;;;;;;21.59;76.32;99230.00;5018061;28;19934;-69
2022/07/30 19:23:40;;;;;;;;;;;;;;;21.56;76.47;99223.19;5017636;28;19998;-69
2022/07/30 19:26:09;;;;;;;;;;;;;;;21.59;76.68;99232.59;5017238;28;19929;-69
2022/07/30 19:28:38;;;;;;;;;;;;;;;21.58;76.12;99231.75;5017308;28;19926;-69
2022/07/30 19:31:07;;;;;;;;;;;;;;;21.50;76.46;99233.06;5017647;28;20008;-69
2022/07/30 19:33:35;;;;;;;;;;;;;;;21.45;76.72;99235.88;5017179;28;19965;-69
2022/07/30 19:36:04;;;;;;;;;;;;;;;21.38;76.89;99248.34;5017447;28;20275;-69
2022/07/30 19:38:36;;;;;;;;;;;;;;;21.36;77.06;99247.59;4983171;28;20020;-69
2022/07/30 19:41:04;;;;;;;;;;;;;;;21.35;76.98;99250.28;5000015;28;19926;-69
2022/07/30 19:43:33;;;;;;;;;;;;;;;21.34;77.27;99243.41;4967835;28;19932;-69
2022/07/30 19:46:04;;;;;;;;;;;;;;;21.33;77.13;99252.94;5016978;28;19929;-69
2022/07/30 19:48:36;;;;;;;;;;;;;;;21.22;76.88;99244.88;5017364;28;19976;-69
2022/07/30 19:51:04;;;;;;;;;;;;;;;21.23;76.58;99254.34;4999772;28;19925;-69
2022/07/30 19:53:48;;;;;;;;;;;;;;;21.29;76.12;99246.22;5017139;28;19979;-69
2022/07/30 19:56:17;;;;;;;;;;;;;;;21.25;75.93;99244.72;5016868;28;19948;-69
2022/07/30 19:58:46;;;;;;;;;;;;;;;21.24;75.68;99240.44;5016762;28;19926;-69
2022/07/30 20:01:15;;;;;;;;;;;;;;;21.30;75.15;99239.28;5016708;28;19972;-69
2022/07/30 20:03:43;;;;;;;;;;;;;;;21.27;75.27;99237.69;5016654;28;19935;-69
2022/07/30 20:06:14;;;;;;;;;;;;;;;21.23;75.28;99238.78;5016933;28;20347;-69
2022/07/30 20:08:43;;;;;;;;;;;;;;;21.21;75.48;99243.19;5016898;28;19980;-69
2022/07/30 20:11:13;;;;;;;;;;;;;;;21.11;75.26;99242.00;5016499;28;19932;-69
2022/07/30 20:14:02;;;;;;;;;;;;;;;21.12;75.24;99238.47;4999427;28;19925;-71
2022/07/30 20:16:30;;;;;;;;;;;;;;;21.10;75.26;99235.13;4998789;28;20034;-71
2022/07/30 20:18:59;;;;;;;;;;;;;;;21.06;75.34;99228.41;5016281;28;19926;-71
2022/07/30 20:21:30;;;;;;;;;;;;;;;21.02;75.44;99232.03;5016400;28;19936;-70
2022/07/30 20:24:18;;;;;;;;;;;;;;;20.96;75.56;99241.88;5016333;28;20342;-70
2022/07/30 20:26:49;;;;;;;;;;;;;;;20.90;75.93;99227.44;5016436;28;19925;-70
2022/07/30 20:29:17;;;;;;;;;;;;;;;20.81;76.30;99230.50;5016520;28;20378;-70
2022/07/30 20:31:48;;;;;;;;;;;;;;;20.76;76.16;99229.88;5016451;28;20311;-70
2022/07/30 20:34:19;;;;;;;;;;;;;;;20.71;76.39;99226.66;5016480;28;19926;-71
2022/07/30 20:36:53;;;;;;;;;;;;;;;20.65;76.74;99227.00;5016085;28;19926;-71
2022/07/30 20:39:24;;;;;;;;;;;;;;;20.69;76.20;99220.72;5016117;28;20403;-70
2022/07/30 20:42:08;;;;;;;;;;;;;;;20.66;76.36;99226.06;5016265;28;20433;-70
2022/07/30 20:44:38;;;;;;;;;;;;;;;20.65;76.32;99227.84;5015957;28;19925;-70
2022/07/30 20:47:11;;;;;;;;;;;;;;;20.64;76.08;99231.31;5015850;28;19929;-70
2022/07/30 20:49:41;;;;;;;;;;;;;;;20.67;75.85;99231.19;5015850;28;19989;-71
2022/07/30 20:52:10;;;;;;;;;;;;;;;20.67;75.86;99227.75;5015814;28;19936;-71
2022/07/30 20:54:39;;;;;;;;;;;;;;;20.60;76.05;99234.16;5015461;28;19925;-71
2022/07/30 20:57:13;;;;;;;;;;;;;;;20.54;76.49;99224.06;5015943;28;19926;-70
2022/07/30 21:00:02;;;;;;;;;;;;;;;20.56;76.43;99222.25;5015570;28;20013;-70
2022/07/30 21:02:30;;;;;;;;;;;;;;;20.50;76.35;99232.91;5015990;28;20032;-71
2022/07/30 21:05:00;;;;;;;;;;;;;;;20.54;76.79;99229.25;5015429;28;19929;-71
2022/07/30 21:07:28;;;;;;;;;;;;;;;20.58;76.39;99234.25;5015686;28;19929;-70
2022/07/30 21:10:18;;;;;;;;;;;;;;;20.58;76.12;99239.41;5015953;28;20008;-70
2022/07/30 21:12:52;;;;;;;;;;;;;;;20.65;75.24;99237.34;5015411;28;20383;-70
2022/07/30 21:15:32;;;;;;;;;;;;;;;20.69;74.84;99231.09;5015458;28;19979;-70
2022/07/30 21:18:01;;;;;;;;;;;;;;;20.70;74.24;99225.00;5015576;28;20093;-70
2022/07/30 21:20:30;;;;;;;;;;;;;;;20.73;73.81;99232.66;5015576;28;20004;-70
2022/07/30 21:23:03;;;;;;;;;;;;;;;20.80;73.63;99231.44;5015577;28;20020;-70
2022/07/30 21:25:32;;;;;;;;;;;;;;;20.84;73.00;99232.09;5015134;28;19973;-70
2022/07/30 21:28:02;;;;;;;;;;;;;;;20.87;72.65;99226.78;5014712;28;20028;-70
2022/07/30 21:30:32;;;;;;;;;;;;;;;20.87;72.52;99230.22;5015469;28;19926;-70
2022/07/30 21:33:00;;;;;;;;;;;;;;;20.93;71.99;99237.69;5015653;28;19984;-70
2022/07/30 21:35:29;;;;;;;;;;;;;;;20.88;71.91;99239.66;5015342;28;19932;-70
2022/07/30 21:37:59;;;;;;;;;;;;;;;20.90;71.97;99237.81;5015220;28;19929;-70
2022/07/30 21:40:28;;;;;;;;;;;;;;;20.88;71.63;99242.25;5015229;28;20267;-70
2022/07/30 21:42:56;;;;;;;;;;;;;;;20.84;71.42;99248.50;5015217;28;20020;-70
2022/07/30 21:45:26;;;;;;;;;;;;;;;20.77;71.42;99236.75;5015326;28;19968;-70
2022/07/30 21:48:08;;;;;;;;;;;;;;;20.71;71.11;99237.03;5015019;28;20294;-70
2022/07/30 21:50:38;;;;;;;;;;;;;;;20.67;70.87;99232.94;5014844;28;19925;-70
2022/07/30 21:53:08;;;;;;;;;;;;;;;20.72;70.99;99233.56;5015623;28;19926;-71
2022/07/30 21:55:36;;;;;;;;;;;;;;;20.71;70.58;99232.69;5014422;28;19979;-71
2022/07/30 21:58:21;;;;;;;;;;;;;;;20.66;70.46;99223.47;5015253;28;19930;-71
2022/07/30 22:01:03;;;;;;;;;;;;;;;20.67;70.18;99231.19;5015247;28;19925;-70
2022/07/30 22:03:45;;;;;;;;;;;;;;;20.65;70.04;99227.00;5014599;28;20382;-70
2022/07/30 22:06:35;;;;;;;;;;;;;;;20.66;69.69;99228.66;4997236;28;20049;-71
2022/07/30 22:09:23;;;;;;;;;;;;;;;20.63;69.78;99218.44;5014738;28;19957;-70
2022/07/30 22:12:02;;;;;;;;;;;;;;;20.66;69.81;99224.31;5014873;28;19926;-70
2022/07/30 22:14:39;;;;;;;;;;;;;;;20.69;69.71;99223.31;5014460;28;20383;-70
2022/07/30 22:17:10;;;;;;;;;;;;;;;20.69;69.55;99223.31;5014612;28;20270;-71
2022/07/30 22:19:50;;;;;;;;;;;;;;;20.68;69.67;99221.66;5014297;28;20019;-71
2022/07/30 22:22:19;;;;;;;;;;;;;;;20.61;69.99;99221.09;5014265;28;20390;-70
2022/07/30 22:24:55;;;;;;;;;;;;;;;20.61;70.25;99215.91;5014273;28;19926;-70
2022/07/30 22:27:27;;;;;;;;;;;;;;;20.60;70.24;99211.66;5014180;28;19977;-71
2022/07/30 22:30:16;;;;;;;;;;;;;;;20.60;70.24;99198.69;5014477;28;19951;-70
2022/07/30 22:32:46;;;;;;;;;;;;;;;20.58;70.67;99199.69;5014480;28;20430;-70
2022/07/30 22:35:16;;;;;;;;;;;;;;;20.58;70.53;99204.88;5014192;28;19964;-70
2022/07/30 22:37:59;;;;;;;;;;;;;;;20.66;70.20;99207.91;5014466;28;20014;-70
2022/07/30 22:40:28;;;;;;;;;;;;;;;20.61;70.51;99208.13;5018433;28;20335;-70
2022/07/30 22:42:57;;;;;;;;;;;;;;;20.61;70.41;99204.72;5018183;28;19972;-70
2022/07/30 22:45:25;;;;;;;;;;;;;;;20.59;70.15;99211.72;5018093;28;19956;-70
2022/07/30 22:48:15;;;;;;;;;;;;;;;20.56;69.90;99204.91;5018067;28;19932;-70
2022/07/30 22:50:47;;;;;;;;;;;;;;;20.53;69.97;99209.44;5018058;28;19940;-70
2022/07/30 22:53:19;;;;;;;;;;;;;;;20.58;70.00;99207.47;5018304;28;19937;-70
2022/07/30 22:56:07;;;;;;;;;;;;;;;20.63;69.87;99197.69;5017590;28;19964;-70
2022/07/30 22:58:43;;;;;;;;;;;;;;;20.66;69.90;99192.34;5017952;28;19925;-70
2022/07/30 23:01:16;;;;;;;;;;;;;;;20.66;69.75;99198.38;5017836;28;19925;-70
2022/07/30 23:03:46;;;;;;;;;;;;;;;20.66;69.78;99198.38;5017771;28;19925;-70
2022/07/30 23:06:15;;;;;;;;;;;;;;;20.65;69.61;99190.69;5018255;28;20280;-70
2022/07/30 23:08:48;;;;;;;;;;;;;;;20.58;69.77;99197.09;5017748;28;20375;-70
2022/07/30 23:11:16;;;;;;;;;;;;;;;20.55;69.88;99184.25;5017912;28;19925;-70
2022/07/30 23:13:45;;;;;;;;;;;;;;;20.51;69.84;99190.53;5017605;28;20012;-70
2022/07/30 23:16:13;;;;;;;;;;;;;;;20.52;69.93;99184.41;5017900;28;19949;-70
2022/07/30 23:18:42;;;;;;;;;;;;;;;20.46;70.03;99184.72;5017793;28;20303;-70
2022/07/30 23:21:13;;;;;;;;;;;;;;;20.39;70.61;99196.31;5000041;28;20284;-71
2022/07/30 23:23:42;;;;;;;;;;;;;;;20.38;71.01;99189.41;4999956;28;19929;-70
2022/07/30 23:26:10;;;;;;;;;;;;;;;20.36;71.14;99189.50;5017609;28;19996;-70
2022/07/30 23:28:39;;;;;;;;;;;;;;;20.36;71.32;99194.69;5017724;28;20024;-70
2022/07/30 23:31:07;;;;;;;;;;;;;;;20.45;71.21;99189.06;5017561;28;19964;-70
2022/07/30 23:33:36;;;;;;;;;;;;;;;20.44;71.27;99191.72;5017647;28;19925;-70
2022/07/30 23:36:04;;;;;;;;;;;;;;;20.41;71.25;99191.88;5017506;28;19988;-70
2022/07/30 23:38:35;;;;;;;;;;;;;;;20.39;71.41;99196.31;5017659;28;20325;-70
2022/07/30 23:41:05;;;;;;;;;;;;;;;20.42;71.54;99196.16;5017114;28;19932;-70
2022/07/30 23:43:34;;;;;;;;;;;;;;;20.46;71.16;99202.88;5017436;28;20012;-70
2022/07/30 23:46:03;;;;;;;;;;;;;;;20.47;71.02;99207.13;5017002;28;19961;-70
2022/07/30 23:48:36;;;;;;;;;;;;;;;20.49;70.88;99200.13;5016914;28;19968;-70
2022/07/30 23:51:05;;;;;;;;;;;;;;;20.49;70.98;99205.31;5015996;28;19979;-70
2022/07/30 23:53:35;;;;;;;;;;;;;;;20.40;71.33;99203.16;5017079;28;19941;-70
2022/07/30 23:56:03;;;;;;;;;;;;;;;20.39;71.11;99204.91;5016931;28;19972;-71
2022/07/30 23:58:32;;;;;;;;;;;;;;;20.43;70.83;99203.00;5017080;28;19960;-70
